Time;durP1;ratioP1;P1;durP2;ratioP2;P2;SDS_P1;SDS_P2;PMS_P1;PMS_P2;Temp;Humidity;BMP_temperature;BMP_pressure;BME280_temperature;BME280_humidity;BME280_pressure;Samples;Min_cycle;Max_cycle;Signal;HPM_P1;HPM_P2
2022/06/17 00:01:37;;;;;;;3.27;3.00;;;22.00;58.10;;;;;;5066966;28;20322;-67
2022/06/17 00:04:04;;;;;;;2.90;2.30;;;22.00;57.80;;;;;;5066227;28;20992;-68
2022/06/17 00:06:35;;;;;;;2.70;2.50;;;22.00;57.90;;;;;;5072874;28;20231;-68
2022/06/17 00:09:00;;;;;;;2.37;2.17;;;22.00;57.90;;;;;;5067089;28;20796;-68
2022/06/17 00:11:31;;;;;;;2.20;2.10;;;21.90;57.90;;;;;;5067493;28;20449;-68
2022/06/17 00:13:57;;;;;;;2.93;2.70;;;21.90;58.00;;;;;;5065814;28;20702;-68
2022/06/17 00:16:25;;;;;;;3.63;2.47;;;21.90;58.00;;;;;;5074021;28;20457;-66
2022/06/17 00:18:51;;;;;;;2.50;2.30;;;21.90;58.00;;;;;;5092615;28;20226;-68
2022/06/17 00:21:21;;;;;;;2.60;2.40;;;21.90;58.00;;;;;;5056724;28;20541;-69
2022/06/17 00:23:47;;;;;;;2.40;2.30;;;21.80;58.00;;;;;;5070478;28;20456;-68
2022/06/17 00:26:13;;;;;;;2.77;2.57;;;21.80;58.20;;;;;;5072006;28;20475;-67
2022/06/17 00:28:39;;;;;;;2.37;2.20;;;21.70;58.60;;;;;;5064403;28;20808;-68
2022/06/17 00:31:05;;;;;;;2.67;2.23;;;21.70;58.20;;;;;;5077481;28;20460;-68
2022/06/17 00:33:31;;;;;;;2.97;2.40;;;21.70;58.30;;;;;;5065008;28;20759;-68
2022/06/17 00:35:57;;;;;;;2.80;2.60;;;21.60;58.30;;;;;;5072650;28;20218;-68
2022/06/17 00:38:31;;;;;;;2.37;2.17;;;21.60;58.30;;;;;;5063921;28;20250;-68
2022/06/17 00:41:02;;;;;;;2.57;2.27;;;21.60;58.30;;;;;;5071410;28;20214;-68
2022/06/17 00:43:36;;;;;;;2.80;2.10;;;21.60;58.30;;;;;;5073013;28;20479;-69
2022/06/17 00:46:29;;;;;;;2.50;2.30;;;21.60;58.40;;;;;;5076745;28;20461;-68
2022/06/17 00:49:09;;;;;;;2.30;2.20;;;21.50;58.50;;;;;;5071403;28;20456;-68
2022/06/17 00:51:45;;;;;;;2.27;1.90;;;21.50;58.40;;;;;;5071165;28;20480;-68
2022/06/17 00:54:37;;;;;;;2.97;2.67;;;21.40;58.50;;;;;;5064179;28;20461;-69
2022/06/17 00:57:25;;;;;;;2.17;1.97;;;21.40;58.50;;;;;;5074828;28;20476;-68
2022/06/17 01:00:07;;;;;;;2.70;2.53;;;21.30;58.50;;;;;;5071110;28;20450;-68
2022/06/17 01:02:41;;;;;;;2.77;2.53;;;21.30;58.60;;;;;;5067670;28;20534;-68
2022/06/17 01:05:08;;;;;;;2.57;2.37;;;21.30;58.80;;;;;;5073037;28;20527;-67
2022/06/17 01:07:39;;;;;;;2.50;2.30;;;21.20;58.70;;;;;;5085152;28;20448;-68
2022/06/17 01:10:11;;;;;;;3.83;2.80;;;21.20;58.80;;;;;;5082438;28;20441;-68
2022/06/17 01:12:40;;;;;;;2.47;2.17;;;21.20;58.80;;;;;;5065619;28;21038;-68
2022/06/17 01:15:07;;;;;;;2.80;2.10;;;21.20;58.80;;;;;;5078609;28;20469;-68
2022/06/17 01:17:39;;;;;;;2.70;2.60;;;21.10;58.70;;;;;;5073640;28;20992;-69
2022/06/17 01:20:09;;;;;;;2.27;2.17;;;21.10;58.80;;;;;;5066118;28;20485;-68
2022/06/17 01:22:39;;;;;;;2.40;2.30;;;21.10;58.80;;;;;;5055052;28;20446;-68
2022/06/17 01:25:16;;;;;;;4.43;2.70;;;21.00;58.80;;;;;;5070855;28;20482;-68
2022/06/17 01:27:48;;;;;;;2.57;2.37;;;21.00;58.80;;;;;;5065967;28;20877;-68
2022/06/17 01:30:24;;;;;;;3.00;2.63;;;21.10;58.90;;;;;;5065696;28;20453;-68
2022/06/17 01:33:00;;;;;;;3.80;2.33;;;21.00;58.90;;;;;;5091163;28;20497;-68
2022/06/17 01:35:30;;;;;;;2.57;2.37;;;21.00;58.90;;;;;;5056085;28;20469;-68
2022/06/17 01:37:57;;;;;;;5.47;2.90;;;20.90;59.20;;;;;;5079347;28;20529;-68
2022/06/17 01:40:24;;;;;;;3.93;3.63;;;20.90;58.70;;;;;;5070987;28;20462;-68
2022/06/17 01:42:50;;;;;;;2.10;2.00;;;20.90;58.70;;;;;;5081666;28;20942;-68
2022/06/17 01:45:16;;;;;;;2.57;2.37;;;20.90;58.80;;;;;;5073532;28;20458;-69
2022/06/17 01:47:44;;;;;;;2.93;2.67;;;20.80;58.80;;;;;;5072363;28;20245;-68
2022/06/17 01:50:17;;;;;;;2.50;2.40;;;20.80;58.90;;;;;;5078200;28;20991;-68
2022/06/17 01:53:03;;;;;;;2.60;2.40;;;20.80;59.00;;;;;;5090653;28;20883;-69
2022/06/17 01:55:42;;;;;;;2.97;2.63;;;20.80;59.10;;;;;;5048732;28;20461;-69
2022/06/17 01:58:20;;;;;;;4.13;3.83;;;20.70;59.10;;;;;;5076541;28;20535;-68
2022/06/17 02:00:47;;;;;;;2.73;2.53;;;20.70;59.20;;;;;;5061627;28;20450;-68
2022/06/17 02:03:24;;;;;;;2.60;2.40;;;20.60;59.20;;;;;;5049429;28;20492;-68
2022/06/17 02:05:55;;;;;;;3.03;2.70;;;20.60;59.20;;;;;;5068823;28;20513;-69
2022/06/17 02:08:21;;;;;;;2.47;2.20;;;20.50;59.30;;;;;;5070483;28;20535;-67
2022/06/17 02:10:49;;;;;;;3.13;2.80;;;20.30;59.60;;;;;;5070224;28;20512;-68
2022/06/17 02:13:16;;;;;;;2.77;2.40;;;20.30;59.60;;;;;;5069338;28;20969;-68
2022/06/17 02:16:21;;;;;;;5.07;2.80;;;20.30;59.60;;;;;;5075831;28;20452;-67
2022/06/17 02:18:55;;;;;;;2.53;2.33;;;20.30;59.50;;;;;;5067774;28;20949;-69
2022/06/17 02:21:33;;;;;;;3.87;2.80;;;20.20;59.70;;;;;;5065780;28;21013;-68
2022/06/17 02:24:00;;;;;;;3.47;2.87;;;20.20;59.70;;;;;;5091305;28;20480;-68
2022/06/17 02:26:27;;;;;;;4.50;3.00;;;20.20;59.60;;;;;;5056118;28;20458;-68
2022/06/17 02:28:53;;;;;;;2.50;2.30;;;20.20;59.60;;;;;;5068638;28;20511;-68
2022/06/17 02:31:22;;;;;;;2.90;2.70;;;20.20;59.70;;;;;;5078603;28;20453;-68
2022/06/17 02:33:51;;;;;;;2.63;2.43;;;20.20;59.70;;;;;;5077344;28;20453;-68
2022/06/17 02:36:40;;;;;;;2.90;2.70;;;20.10;59.70;;;;;;5068480;28;20469;-67
2022/06/17 02:39:06;;;;;;;2.50;2.23;;;20.10;59.80;;;;;;5076345;28;20465;-68
2022/06/17 02:41:32;;;;;;;2.63;2.43;;;20.00;59.80;;;;;;5078771;28;20459;-67
2022/06/17 02:44:03;;;;;;;2.60;2.40;;;20.00;59.90;;;;;;5080777;28;20223;-68
2022/06/17 02:46:34;;;;;;;2.33;2.23;;;20.00;59.70;;;;;;5069164;28;20457;-67
2022/06/17 02:49:05;;;;;;;3.10;2.73;;;20.00;59.90;;;;;;5068834;28;20457;-68
2022/06/17 02:51:36;;;;;;;2.77;2.57;;;20.00;59.80;;;;;;5081669;28;20998;-67
2022/06/17 02:54:05;;;;;;;2.93;2.73;;;20.00;59.80;;;;;;5069120;28;20450;-68
2022/06/17 02:56:32;;;;;;;2.37;2.27;;;19.90;59.90;;;;;;5051081;28;21027;-68
2022/06/17 02:59:15;;;;;;;2.67;2.40;;;19.90;59.90;;;;;;5079587;28;20465;-68
2022/06/17 03:01:46;;;;;;;3.63;2.63;;;19.80;60.10;;;;;;5073191;28;20924;-68
2022/06/17 03:04:32;;;;;;;2.83;2.63;;;19.80;60.20;;;;;;5078844;28;20828;-68
2022/06/17 03:07:01;;;;;;;4.20;2.60;;;19.60;60.00;;;;;;5052406;28;20508;-68
2022/06/17 03:09:32;;;;;;;3.20;2.60;;;19.60;60.50;;;;;;5066599;28;20475;-68
2022/06/17 03:12:20;;;;;;;2.77;2.47;;;19.60;60.50;;;;;;5060644;28;20527;-68
2022/06/17 03:14:59;;;;;;;3.00;2.80;;;19.60;60.50;;;;;;5051642;28;20460;-68
2022/06/17 03:17:25;;;;;;;3.80;2.60;;;19.60;60.70;;;;;;5049921;28;20466;-66
2022/06/17 03:19:55;;;;;;;3.90;2.80;;;19.50;60.60;;;;;;5082232;28;20451;-68
2022/06/17 03:22:21;;;;;;;5.00;2.43;;;19.50;61.00;;;;;;5069906;28;20478;-69
2022/06/17 03:25:07;;;;;;;3.27;2.97;;;19.40;60.90;;;;;;5068338;28;20494;-68
2022/06/17 03:27:47;;;;;;;2.53;2.43;;;19.50;61.10;;;;;;5070346;28;20447;-69
2022/06/17 03:30:21;;;;;;;4.00;2.80;;;19.50;61.10;;;;;;5070325;28;20469;-68
2022/06/17 03:32:54;;;;;;;7.00;3.20;;;19.50;61.70;;;;;;5051647;28;20457;-68
2022/06/17 03:35:24;;;;;;;2.80;2.60;;;19.50;60.90;;;;;;5075290;28;20991;-68
2022/06/17 03:37:56;;;;;;;3.13;2.80;;;19.50;61.20;;;;;;5082213;28;20472;-67
2022/06/17 03:40:45;;;;;;;2.93;2.70;;;19.40;61.20;;;;;;5060532;28;20516;-68
2022/06/17 03:43:43;;;;;;;3.43;2.70;;;19.40;61.10;;;;;;5051876;28;20445;-67
2022/06/17 03:46:10;;;;;;;3.27;3.07;;;19.40;61.30;;;;;;5088421;28;20456;-68
2022/06/17 03:48:58;;;;;;;3.50;3.13;;;19.40;61.60;;;;;;5073757;28;20808;-68
2022/06/17 03:51:26;;;;;;;3.47;3.00;;;19.40;61.50;;;;;;5068264;28;20222;-69
2022/06/17 03:53:54;;;;;;;3.70;3.40;;;19.30;61.30;;;;;;5077870;28;20440;-68
2022/06/17 03:56:27;;;;;;;2.97;2.77;;;19.30;61.70;;;;;;5080015;28;20441;-68
2022/06/17 03:58:56;;;;;;;4.23;3.40;;;19.20;62.00;;;;;;5085428;28;20460;-68
2022/06/17 04:01:32;;;;;;;3.17;2.97;;;19.20;62.00;;;;;;5092488;28;20445;-68
2022/06/17 04:04:16;;;;;;;2.93;2.73;;;19.20;61.90;;;;;;5064796;28;20449;-68
2022/06/17 04:06:45;;;;;;;3.20;2.90;;;19.20;61.90;;;;;;5077379;28;20455;-68
2022/06/17 04:09:20;;;;;;;2.90;2.63;;;19.20;62.00;;;;;;5072479;28;20457;-69
2022/06/17 04:11:49;;;;;;;3.20;2.30;;;19.20;62.20;;;;;;5067615;28;20449;-69
2022/06/17 04:14:24;;;;;;;3.40;2.73;;;19.20;62.30;;;;;;5055376;28;20470;-68
2022/06/17 04:17:00;;;;;;;2.90;2.70;;;19.10;63.80;;;;;;5052238;28;20526;-68
2022/06/17 04:19:28;;;;;;;2.63;2.43;;;19.10;63.60;;;;;;5067959;28;20472;-68
2022/06/17 04:22:03;;;;;;;3.00;2.80;;;19.10;63.30;;;;;;5069947;28;20495;-69
2022/06/17 04:24:37;;;;;;;3.47;3.17;;;19.10;63.50;;;;;;5051735;28;20477;-68
2022/06/17 04:27:17;;;;;;;3.10;2.90;;;19.20;63.60;;;;;;5065797;28;20460;-68
2022/06/17 04:29:48;;;;;;;2.40;2.20;;;19.20;63.40;;;;;;5059768;28;20453;-68
2022/06/17 04:32:28;;;;;;;2.57;2.37;;;19.20;63.60;;;;;;5088147;28;20509;-68
2022/06/17 04:34:54;;;;;;;2.97;2.77;;;19.20;63.00;;;;;;5055896;28;20445;-69
2022/06/17 04:37:22;;;;;;;2.70;2.50;;;19.10;64.20;;;;;;5077434;28;20474;-68
2022/06/17 04:40:26;;;;;;;3.13;2.83;;;19.10;64.70;;;;;;5081570;28;20292;-68
2022/06/17 04:43:28;;;;;;;3.03;2.80;;;19.10;64.30;;;;;;5060212;28;20983;-67
2022/06/17 04:45:59;;;;;;;4.77;2.50;;;19.20;64.10;;;;;;5073415;28;20470;-68
2022/06/17 04:48:25;;;;;;;2.83;2.60;;;19.20;64.20;;;;;;5070311;28;20457;-68
2022/06/17 04:50:51;;;;;;;2.47;2.30;;;19.20;64.10;;;;;;5059389;28;20456;-68
2022/06/17 04:53:17;;;;;;;5.87;2.70;;;19.20;65.30;;;;;;5069149;28;20289;-68
2022/06/17 04:56:17;;;;;;;3.03;2.63;;;19.30;64.90;;;;;;5038416;28;20220;-68
2022/06/17 04:58:54;;;;;;;3.30;3.00;;;19.40;65.60;;;;;;5063542;28;20498;-68
2022/06/17 05:01:22;;;;;;;3.03;2.83;;;19.40;65.20;;;;;;5085152;28;20453;-68
2022/06/17 05:04:06;;;;;;;3.00;2.80;;;19.40;64.90;;;;;;5078437;28;20968;-68
2022/06/17 05:06:52;;;;;;;2.93;2.63;;;19.40;65.00;;;;;;5074678;28;20445;-67
2022/06/17 05:09:31;;;;;;;3.10;2.80;;;19.40;64.80;;;;;;5085691;28;20965;-68
2022/06/17 05:12:07;;;;;;;3.93;2.70;;;19.40;64.40;;;;;;5073256;28;20449;-68
2022/06/17 05:14:48;;;;;;;3.60;3.30;;;19.50;64.80;;;;;;5080663;28;20457;-68
2022/06/17 05:17:14;;;;;;;2.93;2.63;;;19.50;64.80;;;;;;5066626;28;20448;-67
2022/06/17 05:19:43;;;;;;;3.07;2.70;;;19.50;64.80;;;;;;5071614;28;20449;-68
2022/06/17 05:22:34;;;;;;;3.63;2.60;;;19.50;65.70;;;;;;5072217;28;20452;-68
2022/06/17 05:25:10;;;;;;;4.53;2.33;;;19.50;64.60;;;;;;5079864;28;20202;-68
2022/06/17 05:27:36;;;;;;;4.13;2.80;;;19.60;66.40;;;;;;5095925;28;21230;-68
2022/06/17 05:30:02;;;;;;;3.10;2.90;;;19.60;65.30;;;;;;5063136;28;20854;-68
2022/06/17 05:32:33;;;;;;;3.17;2.87;;;19.60;65.20;;;;;;5078807;28;20277;-70
2022/06/17 05:34:59;;;;;;;2.63;2.43;;;19.60;64.90;;;;;;5070679;28;20445;-68
2022/06/17 05:37:25;;;;;;;3.07;2.80;;;19.70;66.40;;;;;;5069863;28;20473;-68
2022/06/17 05:39:56;;;;;;;3.00;2.80;;;19.70;65.80;;;;;;5062864;28;20786;-68
2022/06/17 05:42:22;;;;;;;2.93;2.73;;;19.80;66.30;;;;;;5085206;28;20524;-68
2022/06/17 05:44:48;;;;;;;2.70;2.50;;;19.80;66.30;;;;;;5073437;28;20231;-67
2022/06/17 05:47:32;;;;;;;2.77;2.57;;;19.80;66.90;;;;;;5069817;28;20519;-68
2022/06/17 05:50:17;;;;;;;2.27;2.17;;;19.90;67.10;;;;;;5071378;28;20870;-68
2022/06/17 05:53:10;;;;;;;2.80;2.67;;;20.00;67.20;;;;;;5067205;28;20971;-69
2022/06/17 05:55:44;;;;;;;4.20;3.10;;;20.00;67.20;;;;;;5069479;28;20533;-69
2022/06/17 05:58:09;;;;;;;2.70;2.50;;;20.10;67.80;;;;;;5072698;28;20994;-68
2022/06/17 06:00:39;;;;;;;2.50;2.30;;;20.10;66.80;;;;;;5061328;28;20512;-68
2022/06/17 06:03:06;;;;;;;3.53;3.23;;;20.20;67.30;;;;;;5053533;28;20812;-71
2022/06/17 06:05:35;;;;;;;4.10;2.80;;;20.20;66.90;;;;;;5077023;28;20449;-68
2022/06/17 06:08:03;;;;;;;3.30;3.00;;;20.30;67.20;;;;;;5082701;28;20710;-68
2022/06/17 06:10:29;;;;;;;2.93;2.30;;;20.30;67.30;;;;;;5054718;28;20455;-68
2022/06/17 06:12:58;;;;;;;2.63;2.43;;;20.30;67.60;;;;;;5088287;28;20451;-68
2022/06/17 06:15:38;;;;;;;2.40;2.20;;;20.40;67.70;;;;;;5063650;28;20232;-69
2022/06/17 06:18:23;;;;;;;2.60;2.20;;;20.50;68.10;;;;;;5089262;28;20465;-69
2022/06/17 06:20:50;;;;;;;2.50;2.30;;;20.50;68.20;;;;;;5085727;28;20855;-68
2022/06/17 06:23:16;;;;;;;2.67;2.47;;;20.60;68.30;;;;;;5072499;28;20533;-68
2022/06/17 06:25:42;;;;;;;7.37;2.60;;;20.70;68.30;;;;;;5073593;28;20460;-68
2022/06/17 06:28:19;;;;;;;3.10;2.20;;;20.80;68.10;;;;;;5084842;28;20487;-68
2022/06/17 06:30:53;;;;;;;4.07;2.60;;;20.80;68.50;;;;;;5066857;28;20698;-68
2022/06/17 06:33:19;;;;;;;2.57;2.13;;;20.90;68.00;;;;;;5049581;28;20511;-67
2022/06/17 06:35:45;;;;;;;2.90;2.70;;;20.90;68.50;;;;;;5075732;28;20469;-68
2022/06/17 06:38:12;;;;;;;2.13;2.00;;;21.00;68.30;;;;;;5089375;28;20461;-68
2022/06/17 06:40:39;;;;;;;2.70;2.50;;;21.00;68.20;;;;;;5071747;28;20602;-68
2022/06/17 06:43:13;;;;;;;3.17;2.70;;;21.10;68.80;;;;;;5088049;28;20456;-68
2022/06/17 06:45:58;;;;;;;3.37;2.33;;;21.20;68.90;;;;;;5050636;28;20462;-68
2022/06/17 06:48:25;;;;;;;2.33;2.20;;;21.30;68.90;;;;;;5056786;28;20453;-68
2022/06/17 06:50:52;;;;;;;3.30;3.00;;;21.30;68.80;;;;;;5094341;28;20524;-68
2022/06/17 06:53:20;;;;;;;2.60;2.30;;;21.40;68.90;;;;;;5080234;28;20476;-68
2022/06/17 06:55:48;;;;;;;2.90;2.67;;;21.40;69.00;;;;;;5069146;28;20477;-67
2022/06/17 06:58:17;;;;;;;2.27;2.07;;;21.50;69.30;;;;;;5077399;28;20229;-67
2022/06/17 07:00:51;;;;;;;7.00;2.77;;;21.60;69.00;;;;;;5071705;28;20436;-68
2022/06/17 07:03:18;;;;;;;5.13;2.23;;;21.70;68.60;;;;;;5070508;28;20984;-68
2022/06/17 07:05:57;;;;;;;2.30;2.20;;;21.80;69.10;;;;;;5068147;28;20441;-68
2022/06/17 07:08:25;;;;;;;5.47;2.67;;;21.80;68.30;;;;;;5051137;28;20514;-68
2022/06/17 07:10:53;;;;;;;2.90;2.50;;;21.90;68.90;;;;;;5064243;28;20449;-68
2022/06/17 07:13:21;;;;;;;2.80;2.60;;;22.00;68.70;;;;;;5083410;28;20979;-67
2022/06/17 07:15:48;;;;;;;4.13;2.10;;;22.10;69.00;;;;;;5050516;28;20485;-68
2022/06/17 07:18:18;;;;;;;3.30;3.00;;;22.20;69.00;;;;;;5061386;28;20473;-67
2022/06/17 07:20:47;;;;;;;2.57;2.37;;;22.30;69.20;;;;;;5062085;28;20453;-68
2022/06/17 07:23:17;;;;;;;3.20;2.40;;;22.40;68.90;;;;;;5054674;28;20802;-69
2022/06/17 07:25:43;;;;;;;2.23;2.13;;;22.50;69.00;;;;;;5082692;28;20452;-68
2022/06/17 07:28:13;;;;;;;2.67;2.47;;;22.50;68.20;;;;;;5071227;28;20460;-68
2022/06/17 07:30:39;;;;;;;3.50;2.80;;;22.60;68.70;;;;;;5066738;28;20952;-68
2022/06/17 07:33:04;;;;;;;3.57;2.60;;;22.70;68.20;;;;;;5088877;28;20451;-68
2022/06/17 07:35:31;;;;;;;4.10;2.80;;;22.70;67.90;;;;;;5088532;28;20245;-69
2022/06/17 07:40:47;;;;;;;2.90;2.60;;;22.80;67.70;;;;;;5090251;28;20448;-69
2022/06/17 07:43:17;;;;;;;2.50;2.30;;;22.80;66.50;;;;;;5080796;28;20449;-69
2022/06/17 07:45:43;;;;;;;2.63;2.40;;;23.00;67.20;;;;;;5071051;28;20448;-69
2022/06/17 07:48:12;;;;;;;4.63;2.53;;;23.00;67.00;;;;;;5073274;28;20461;-69
2022/06/17 07:50:38;;;;;;;4.87;2.37;;;23.10;67.20;;;;;;5065224;28;20890;-69
2022/06/17 07:53:05;;;;;;;6.80;2.80;;;23.30;67.00;;;;;;5062315;28;20462;-68
2022/06/17 07:55:30;;;;;;;14.60;2.80;;;23.40;66.90;;;;;;5090099;28;20480;-69
2022/06/17 07:57:56;;;;;;;2.77;2.57;;;23.50;66.40;;;;;;5072972;28;20476;-69
2022/06/17 08:00:37;;;;;;;2.93;2.67;;;23.50;66.20;;;;;;5044300;28;20222;-69
2022/06/17 08:03:05;;;;;;;3.43;2.47;;;23.50;66.70;;;;;;5082410;28;20263;-68
2022/06/17 08:05:31;;;;;;;2.90;2.37;;;23.50;65.20;;;;;;5076859;28;20465;-68
2022/06/17 08:07:58;;;;;;;9.30;2.50;;;23.50;65.70;;;;;;5068251;28;20506;-69
2022/06/17 08:10:27;;;;;;;2.50;2.30;;;23.50;65.80;;;;;;5074163;28;20544;-70
2022/06/17 08:12:53;;;;;;;2.23;2.03;;;23.60;66.10;;;;;;5081847;28;20453;-69
2022/06/17 08:15:20;;;;;;;3.40;2.10;;;23.70;65.40;;;;;;5067587;28;20532;-71
2022/06/17 08:17:46;;;;;;;2.33;2.13;;;23.80;64.90;;;;;;5068939;28;20985;-70
2022/06/17 08:20:18;;;;;;;2.60;2.40;;;23.90;64.20;;;;;;5068819;28;20532;-70
2022/06/17 08:22:44;;;;;;;2.20;2.00;;;23.90;64.30;;;;;;5079508;28;20217;-71
2022/06/17 08:25:10;;;;;;;2.20;2.00;;;23.90;64.40;;;;;;5075829;28;20459;-70
2022/06/17 08:27:49;;;;;;;2.53;2.33;;;24.10;64.70;;;;;;5079503;28;20435;-71
2022/06/17 08:30:17;;;;;;;2.63;2.27;;;24.20;64.20;;;;;;5055694;28;20535;-70
2022/06/17 08:32:46;;;;;;;2.83;2.47;;;24.30;64.00;;;;;;5069568;28;20506;-71
2022/06/17 08:35:18;;;;;;;2.50;2.30;;;24.40;63.80;;;;;;5088056;28;21031;-70
2022/06/17 08:37:45;;;;;;;2.50;2.33;;;24.50;63.60;;;;;;5073109;28;20487;-71
2022/06/17 08:40:58;;;;;;;2.50;2.30;;;24.50;62.80;;;;;;5071505;28;20448;-70
2022/06/17 08:43:46;;;;;;;3.47;2.63;;;24.50;62.90;;;;;;5074129;28;20453;-71
2022/06/17 08:46:17;;;;;;;2.33;2.13;;;24.60;63.30;;;;;;5071562;28;20471;-69
2022/06/17 08:49:20;;;;;;;6.20;2.33;;;24.60;62.90;;;;;;5054340;28;20981;-71
2022/06/17 08:51:50;;;;;;;2.03;1.93;;;24.90;62.90;;;;;;5072832;28;20445;-70
2022/06/17 08:54:33;;;;;;;2.43;2.20;;;25.00;62.30;;;;;;5079914;28;20440;-71
2022/06/17 08:57:09;;;;;;;2.33;2.23;;;25.10;61.20;;;;;;5074950;28;20449;-70
2022/06/17 08:59:56;;;;;;;2.60;2.50;;;25.20;61.80;;;;;;5079357;28;21035;-70
2022/06/17 09:02:27;;;;;;;3.60;1.90;;;25.30;60.40;;;;;;5071580;28;20963;-71
2022/06/17 09:05:11;;;;;;;2.50;2.30;;;25.30;60.40;;;;;;5070965;28;20460;-71
2022/06/17 09:08:01;;;;;;;2.13;2.03;;;25.40;60.00;;;;;;5071056;28;20518;-70
2022/06/17 09:10:50;;;;;;;2.20;2.00;;;25.50;60.10;;;;;;5069913;28;20480;-70
2022/06/17 09:13:32;;;;;;;2.90;2.20;;;25.60;59.60;;;;;;5076742;28;20461;-71
2022/06/17 09:16:15;;;;;;;6.23;2.30;;;25.60;59.10;;;;;;5075228;28;20452;-71
2022/06/17 09:18:49;;;;;;;2.00;1.90;;;25.70;59.00;;;;;;5069539;28;20492;-71
2022/06/17 09:21:24;;;;;;;2.50;2.30;;;25.80;59.10;;;;;;5070939;28;20523;-71
2022/06/17 09:23:51;;;;;;;3.63;2.50;;;25.90;58.80;;;;;;5082581;28;20927;-71
2022/06/17 09:26:24;;;;;;;2.10;2.00;;;25.90;59.10;;;;;;5067457;28;20482;-71
2022/06/17 09:28:58;;;;;;;4.03;2.60;;;26.10;58.90;;;;;;5071379;28;20460;-70
2022/06/17 09:31:35;;;;;;;6.40;2.20;;;26.20;58.70;;;;;;5068852;28;20452;-70
2022/06/17 09:34:11;;;;;;;1.93;1.83;;;26.30;58.50;;;;;;5080655;28;20465;-71
2022/06/17 09:36:50;;;;;;;2.20;2.00;;;26.50;57.20;;;;;;5072329;28;21125;-71
2022/06/17 09:39:33;;;;;;;5.90;2.20;;;26.60;57.40;;;;;;5071902;28;20488;-70
2022/06/17 09:42:12;;;;;;;3.20;2.10;;;26.50;57.00;;;;;;5063598;28;20441;-71
2022/06/17 09:44:47;;;;;;;1.80;1.70;;;26.40;56.90;;;;;;5069250;28;20549;-71
2022/06/17 09:47:34;;;;;;;2.00;1.90;;;26.40;57.20;;;;;;5072097;28;20976;-69
2022/06/17 09:50:13;;;;;;;2.90;2.30;;;26.60;58.00;;;;;;5070362;28;20452;-71
2022/06/17 09:52:52;;;;;;;2.10;2.00;;;26.60;57.40;;;;;;5072954;28;20456;-70
2022/06/17 09:55:44;;;;;;;2.27;1.90;;;26.70;57.10;;;;;;5081806;28;20905;-68
2022/06/17 09:58:47;;;;;;;2.43;2.10;;;26.80;57.30;;;;;;5078742;28;20529;-69
2022/06/17 10:01:13;;;;;;;2.40;2.17;;;27.00;57.40;;;;;;5070752;28;20299;-69
2022/06/17 10:03:39;;;;;;;2.50;1.87;;;27.10;57.10;;;;;;5052213;28;20449;-67
2022/06/17 10:06:13;;;;;;;2.20;2.10;;;27.00;57.20;;;;;;5068206;28;20214;-70
2022/06/17 10:09:04;;;;;;;2.07;1.83;;;27.00;57.10;;;;;;5064091;28;20445;-69
2022/06/17 10:11:39;;;;;;;1.97;1.87;;;27.30;56.70;;;;;;5082617;28;20463;-68
2022/06/17 10:14:44;;;;;;;2.55;2.05;;;27.50;56.90;;;;;;5081979;28;20209;-69
2022/06/17 10:20:26;;;;;;;2.45;2.25;;;27.80;56.50;;;;;;5091158;28;20249;-68
2022/06/17 10:22:54;;;;;;;3.00;2.17;;;28.00;56.50;;;;;;5091197;28;20216;-69
2022/06/17 10:25:47;;;;;;;2.95;2.45;;;28.00;56.30;;;;;;5082354;28;20223;-69
2022/06/17 10:28:37;;;;;;;2.15;1.92;;;28.10;56.40;;;;;;5054444;28;20265;-69
2022/06/17 10:31:18;;;;;;;3.88;2.28;;;28.10;56.30;;;;;;5069007;28;20215;-69
2022/06/17 10:33:44;;;;;;;2.05;1.77;;;28.20;56.10;;;;;;5062669;28;20635;-69
2022/06/17 10:36:10;;;;;;;2.60;2.40;;;28.30;55.90;;;;;;5090024;28;20223;-68
2022/06/17 10:38:43;;;;;;;1.95;1.85;;;28.30;55.70;;;;;;5073524;28;20231;-69
2022/06/17 10:41:10;;;;;;;2.42;2.25;;;28.40;56.10;;;;;;5070183;28;20222;-69
2022/06/17 10:43:50;;;;;;;1.85;1.75;;;28.50;55.90;;;;;;5061271;28;20683;-68
2022/06/17 10:46:21;;;;;;;2.00;1.90;;;28.40;55.70;;;;;;5062792;28;20241;-69
2022/06/17 10:49:12;;;;;;;2.35;1.88;;;28.60;55.30;;;;;;5074601;28;20380;-70
2022/06/17 10:51:39;;;;;;;1.98;1.88;;;28.60;55.50;;;;;;5059410;28;20227;-68
2022/06/17 10:54:29;;;;;;;2.28;2.08;;;28.70;54.90;;;;;;5084181;28;20226;-69
2022/06/17 10:57:05;;;;;;;2.47;2.13;;;28.80;55.10;;;;;;5077564;28;20220;-68
2022/06/17 10:59:43;;;;;;;1.60;1.50;;;28.90;54.50;;;;;;5071276;28;20234;-68
2022/06/17 11:02:21;;;;;;;2.25;1.95;;;29.20;53.90;;;;;;5066260;28;20317;-69
2022/06/17 11:04:50;;;;;;;1.98;1.88;;;29.30;54.10;;;;;;5069887;28;20220;-70
2022/06/17 11:07:21;;;;;;;2.45;1.80;;;29.40;53.50;;;;;;5069479;28;20249;-69
2022/06/17 11:09:54;;;;;;;1.65;1.55;;;29.50;52.90;;;;;;5075102;28;20294;-69
2022/06/17 11:12:26;;;;;;;1.80;1.70;;;29.60;53.70;;;;;;5068028;28;20252;-68
2022/06/17 11:14:55;;;;;;;1.75;1.65;;;29.60;53.20;;;;;;5077896;28;20252;-68
2022/06/17 11:17:39;;;;;;;2.22;2.13;;;29.50;53.40;;;;;;5085594;28;20228;-69
2022/06/17 11:20:27;;;;;;;1.92;1.83;;;29.60;53.00;;;;;;5071331;28;20237;-69
2022/06/17 11:23:02;;;;;;;2.17;2.03;;;29.70;53.60;;;;;;5074620;28;20598;-70
2022/06/17 11:25:40;;;;;;;2.03;1.92;;;29.90;53.50;;;;;;5067942;28;20699;-68
2022/06/17 11:28:17;;;;;;;2.35;1.73;;;30.00;53.40;;;;;;5061334;28;20219;-69
2022/06/17 11:31:05;;;;;;;1.70;1.60;;;30.10;52.60;;;;;;5071464;28;20227;-69
2022/06/17 11:33:53;;;;;;;1.85;1.75;;;30.30;52.50;;;;;;5082491;28;20238;-69
2022/06/17 11:36:31;;;;;;;2.13;2.03;;;30.40;52.60;;;;;;5086221;28;20258;-69
2022/06/17 11:39:04;;;;;;;2.88;1.92;;;30.50;52.50;;;;;;5056755;28;20229;-69
2022/06/17 11:41:33;;;;;;;2.00;1.90;;;30.50;52.70;;;;;;5061557;28;20228;-69
2022/06/17 11:44:09;;;;;;;2.00;1.90;;;30.60;52.40;;;;;;5063425;28;20221;-69
2022/06/17 11:46:35;;;;;;;2.55;1.90;;;30.60;52.90;;;;;;5070367;28;20232;-70
2022/06/17 11:49:15;;;;;;;1.90;1.80;;;30.70;52.40;;;;;;5066445;28;20213;-69
2022/06/17 11:51:55;;;;;;;1.80;1.70;;;30.80;52.10;;;;;;5049771;28;20719;-68
2022/06/17 11:54:44;;;;;;;2.05;1.95;;;30.80;52.30;;;;;;5061685;28;20212;-69
2022/06/17 11:57:21;;;;;;;2.38;2.28;;;30.70;52.00;;;;;;5077347;28;20216;-69
2022/06/17 11:59:53;;;;;;;3.45;1.70;;;30.60;51.50;;;;;;5065191;28;20242;-69
2022/06/17 12:02:21;;;;;;;2.95;2.17;;;30.70;51.80;;;;;;5060527;28;20238;-68
2022/06/17 12:04:48;;;;;;;2.75;1.90;;;30.80;52.10;;;;;;5068847;28;20697;-69
2022/06/17 12:07:29;;;;;;;3.63;2.20;;;31.00;51.80;;;;;;5067747;28;20344;-69
2022/06/17 12:10:18;;;;;;;2.38;1.75;;;31.10;51.70;;;;;;5045572;28;20223;-69
2022/06/17 12:12:45;;;;;;;2.63;2.35;;;31.20;51.70;;;;;;5069599;28;20353;-70
2022/06/17 12:15:18;;;;;;;2.00;1.90;;;31.30;50.90;;;;;;5070077;28;20224;-69
2022/06/17 12:17:45;;;;;;;4.32;1.88;;;31.20;51.20;;;;;;5061738;28;20230;-70
2022/06/17 12:20:22;;;;;;;1.83;1.73;;;31.30;51.70;;;;;;5078960;28;20293;-69
2022/06/17 12:23:11;;;;;;;4.22;1.70;;;31.40;50.80;;;;;;5072005;28;20221;-69
2022/06/17 12:25:44;;;;;;;1.70;1.60;;;31.60;50.10;;;;;;5063562;28;20278;-69
2022/06/17 12:28:34;;;;;;;2.10;2.00;;;31.60;49.20;;;;;;5065431;28;20282;-69
2022/06/17 12:31:11;;;;;;;1.58;1.48;;;31.70;50.00;;;;;;5069313;28;20218;-69
2022/06/17 12:33:53;;;;;;;4.15;2.10;;;31.80;49.70;;;;;;5068716;28;20222;-70
2022/06/17 12:36:42;;;;;;;1.80;1.70;;;32.00;50.30;;;;;;5066932;28;20233;-69
2022/06/17 12:39:15;;;;;;;1.65;1.55;;;32.00;49.90;;;;;;5064657;28;20718;-69
2022/06/17 12:41:46;;;;;;;2.05;1.85;;;32.10;50.10;;;;;;5071629;28;20234;-69
2022/06/17 12:44:40;;;;;;;3.88;1.80;;;32.10;49.70;;;;;;5067776;28;20326;-70
2022/06/17 12:47:34;;;;;;;1.80;1.70;;;31.90;49.40;;;;;;5066291;28;20274;-68
2022/06/17 12:53:31;;;;;;;2.05;1.95;;;31.50;49.60;;;;;;5064326;28;20308;-70
2022/06/17 12:56:35;;;;;;;2.45;1.85;;;31.60;50.10;;;;;;5068535;28;20245;-68
2022/06/17 12:59:32;;;;;;;1.80;1.70;;;31.50;49.90;;;;;;5063820;28;20240;-68
2022/06/17 13:02:27;;;;;;;4.70;1.98;;;31.40;49.70;;;;;;5081097;28;20354;-68
2022/06/17 13:05:05;;;;;;;1.98;1.88;;;31.40;49.50;;;;;;5069332;28;20220;-69
2022/06/17 13:07:43;;;;;;;1.77;1.48;;;31.50;49.50;;;;;;5065108;28;20235;-68
2022/06/17 13:10:39;;;;;;;1.63;1.52;;;31.50;50.30;;;;;;5057019;28;20235;-69
2022/06/17 13:13:30;;;;;;;1.90;1.80;;;31.70;50.60;;;;;;5061190;28;20235;-70
2022/06/17 13:16:00;;;;;;;8.05;2.08;;;31.90;50.20;;;;;;5056554;28;20717;-69
2022/06/17 13:18:59;;;;;;;2.22;1.73;;;32.00;49.50;;;;;;5044964;28;20238;-69
2022/06/17 13:21:51;;;;;;;3.40;1.67;;;32.10;49.90;;;;;;5085302;28;20223;-69
2022/06/17 13:24:26;;;;;;;1.60;1.50;;;32.30;49.00;;;;;;5069542;28;20298;-69
2022/06/17 13:27:10;;;;;;;1.67;1.58;;;32.40;49.60;;;;;;5077168;28;20239;-69
2022/06/17 13:29:42;;;;;;;1.58;1.50;;;32.60;49.50;;;;;;5068409;28;20228;-69
2022/06/17 13:32:25;;;;;;;1.55;1.55;;;32.60;48.70;;;;;;5070304;28;20217;-69
2022/06/17 13:35:04;;;;;;;1.95;1.60;;;32.30;48.50;;;;;;5049100;28;20230;-69
2022/06/17 13:37:39;;;;;;;1.98;1.88;;;32.10;48.20;;;;;;5056950;28;20231;-68